Terminal Aerodrome Forecast
Issued by NWS Portland, ME

Home | Current Version | Previous Version | Text Only | Print | Product List | Glossary On
Versions: 1 2 3 4 5 6 7 8 9 10 11 12 13 14 15 16 17 18 19 20
000
FTUS41 KGYX 260520
TAFPWM
TAF
KPWM 260520Z 2606/2706 28004KT P6SM SCT050 BKN100
     FM261400 33007KT P6SM BKN050
     FM261900 17007KT P6SM OVC050 PROB30 2620/2624 5SM -SHRA BKN025=

USA.gov is the U.S. government's official web portal to all federal, state and local government web resources and services.